»·PEaware :: N125EG KTRK-KFOT

N125EG :: KTRK-KFOT

FLIGHT INFORMATION

Flight Status: Arrived
Operator: Privately registered:
United States
More flights under this callsign
Pilot: Eugene Z. (6)
Aircraft: PIPER PA-24 COMMANCHE
(PA24)
More flights by this aircraft type
Origin: KTRK Truckee-Tahoe
United States
Destination: KFOT Rohnerville
United States
More flights between these airports :: More routes between these airports
Route: TRUCK3 TRUCK V200 MRGGO V332 RBL V195 FOT
File this flight plan on PilotEdge
Remarks:
Altitude:
(Current/Filed)
12,000ft
Speed:
(Current/Filed)
170kts
Departed: 05-Aug-12 05:51 AM
Arrived: 05-Aug-12 07:21 AM
Distance/Time
Traveled:
198nm/1:30
Distance/Time
To Go:
Arrived

Flight Plot

Page will automatically refresh every two minutes.


Map Options




Map Legend


Flown Route
Filed Route
Departure Airport
Arrival Airport
Navaid (VOR, NDB)
Fix

Horizontal Profiles

Position Reports

Time Latitude Longitude Heading Altitude Ground
Speed
05-Aug-12 05:36 39.318657 -120.146553 359 5902ft 0kts
05-Aug-12 05:37 39.318657 -120.146553 359 5902ft 0kts
05-Aug-12 05:38 39.318657 -120.146553 359 5902ft 0kts
05-Aug-12 05:39 39.318657 -120.146553 359 5902ft 0kts
05-Aug-12 05:40 39.318657 -120.146553 359 5902ft 0kts
05-Aug-12 05:41 39.318657 -120.146553 359 5902ft 0kts
05-Aug-12 05:42 39.318657 -120.146553 359 5902ft 0kts
05-Aug-12 05:44 39.318657 -120.146553 359 5902ft 0kts
05-Aug-12 05:46 39.317741 -120.144836 148 5902ft 17kts
05-Aug-12 05:47 39.315065 -120.141072 119 5902ft 0kts
05-Aug-12 05:48 39.315065 -120.141072 119 5902ft 0kts
05-Aug-12 05:49 39.314824 -120.140509 118 5902ft 13kts
05-Aug-12 05:50 39.329370 -120.128970 30 6342ft 100kts
05-Aug-12 05:51 39.347494 -120.155347 288 7322ft 122kts
05-Aug-12 05:52 39.358880 -120.196063 309 8442ft 118kts
05-Aug-12 05:53 39.384665 -120.186011 34 9489ft 107kts
05-Aug-12 05:54 39.412555 -120.172218 22 10441ft 110kts
05-Aug-12 05:55 39.442793 -120.161331 353 11285ft 121kts
05-Aug-12 05:56 39.441092 -120.192332 197 11999ft 126kts
05-Aug-12 05:57 39.404332 -120.203592 148 11996ft 138kts
05-Aug-12 05:58 39.419268 -120.169693 22 11999ft 162kts
05-Aug-12 05:59 39.454652 -120.187132 262 11993ft 182kts
05-Aug-12 06:00 39.426619 -120.239361 237 11988ft 181kts
05-Aug-12 06:01 39.411372 -120.301909 254 12011ft 184kts
05-Aug-12 06:02 39.399214 -120.365957 254 12061ft 185kts
05-Aug-12 06:03 39.387202 -120.429267 254 12046ft 183kts
05-Aug-12 06:04 39.378471 -120.475141 254 11996ft 185kts
05-Aug-12 06:05 39.366237 -120.539260 254 11990ft 183kts
05-Aug-12 06:06 39.354086 -120.602746 254 11989ft 182kts
05-Aug-12 06:07 39.342443 -120.663381 254 11989ft 181kts
05-Aug-12 06:08 39.330710 -120.724296 254 11989ft 182kts
05-Aug-12 06:09 39.318537 -120.787311 254 11989ft 179kts
05-Aug-12 06:10 39.306406 -120.849908 254 11989ft 180kts
05-Aug-12 06:11 39.294792 -120.909653 254 11989ft 180kts
05-Aug-12 06:12 39.282754 -120.971386 254 12108ft 177kts
05-Aug-12 06:13 39.270374 -121.034688 254 11966ft 185kts
05-Aug-12 06:14 39.258141 -121.097060 254 11782ft 187kts
05-Aug-12 06:15 39.245343 -121.162094 254 11592ft 189kts
05-Aug-12 06:16 39.232433 -121.227484 254 11405ft 190kts
05-Aug-12 06:17 39.229551 -121.292332 319 11119ft 195kts
05-Aug-12 06:18 39.272799 -121.333059 322 10846ft 195kts
05-Aug-12 06:19 39.314075 -121.377381 321 10566ft 195kts
05-Aug-12 06:20 39.355274 -121.421801 317 10277ft 189kts
05-Aug-12 06:21 39.386664 -121.455731 319 10028ft 180kts
05-Aug-12 06:23 39.456180 -121.530966 321 9836ft 169kts
05-Aug-12 06:24 39.456281 -121.531076 320 9838ft 169kts
05-Aug-12 06:25 39.489237 -121.566797 319 9855ft 164kts
05-Aug-12 06:26 39.523651 -121.604114 315 9847ft 155kts
05-Aug-12 06:27 39.559018 -121.642667 317 9862ft 176kts
05-Aug-12 06:28 39.596793 -121.683775 318 9860ft 187kts
05-Aug-12 06:29 39.634826 -121.725244 319 9961ft 188kts
05-Aug-12 06:30 39.668163 -121.761632 319 9941ft 190kts
05-Aug-12 06:31 39.707252 -121.804374 318 9938ft 187kts
05-Aug-12 06:32 39.746208 -121.847044 318 9938ft 184kts
05-Aug-12 06:33 39.783914 -121.888404 318 9938ft 180kts
05-Aug-12 06:34 39.821402 -121.929586 318 9938ft 178kts
05-Aug-12 06:35 39.857784 -121.969610 318 9938ft 178kts
05-Aug-12 06:36 39.895166 -122.010793 318 9938ft 177kts
05-Aug-12 06:37 39.931986 -122.051418 318 9978ft 176kts
05-Aug-12 06:38 39.968464 -122.091723 318 9978ft 177kts
05-Aug-12 06:39 40.005609 -122.132825 318 9978ft 177kts
05-Aug-12 06:40 40.042899 -122.174148 318 9974ft 178kts
05-Aug-12 06:41 40.079101 -122.214321 317 9967ft 171kts
05-Aug-12 06:42 40.106824 -122.260273 290 9968ft 163kts
05-Aug-12 06:43 40.122543 -122.315845 293 9967ft 162kts
05-Aug-12 06:44 40.138918 -122.371152 294 9967ft 163kts
05-Aug-12 06:45 40.155193 -122.426195 294 9967ft 164kts
05-Aug-12 06:46 40.171703 -122.482147 294 9967ft 165kts
05-Aug-12 06:47 40.186489 -122.532363 294 9968ft 165kts
05-Aug-12 06:48 40.202788 -122.587826 294 9968ft 165kts
05-Aug-12 06:49 40.219377 -122.644395 294 9968ft 166kts
05-Aug-12 06:50 40.235824 -122.700597 294 9968ft 166kts
05-Aug-12 06:51 40.252332 -122.757134 294 9968ft 166kts
05-Aug-12 06:52 40.268295 -122.811918 294 9968ft 166kts
05-Aug-12 06:53 40.283413 -122.863907 294 9967ft 166kts
05-Aug-12 06:54 40.299837 -122.920509 294 9968ft 166kts
05-Aug-12 06:55 40.316158 -122.976876 294 9967ft 166kts
05-Aug-12 06:56 40.332387 -123.033029 293 9978ft 167kts
05-Aug-12 06:57 40.347616 -123.085854 292 9979ft 169kts
05-Aug-12 07:00 40.394614 -123.249542 291 9978ft 172kts
05-Aug-12 07:01 40.406722 -123.291882 291 9998ft 171kts
05-Aug-12 07:02 40.422418 -123.346864 291 10019ft 172kts
05-Aug-12 07:03 40.437647 -123.400324 291 10018ft 170kts
05-Aug-12 07:04 40.454292 -123.458890 291 9951ft 171kts
05-Aug-12 07:05 40.470587 -123.516338 291 9948ft 165kts
05-Aug-12 07:06 40.483571 -123.562219 290 9948ft 159kts
05-Aug-12 07:07 40.498637 -123.615557 290 9752ft 155kts
05-Aug-12 07:08 40.511799 -123.666601 267 9409ft 152kts
05-Aug-12 07:09 40.499031 -123.709924 250 8600ft 155kts
05-Aug-12 07:10 40.486419 -123.759651 251 7567ft 145kts
05-Aug-12 07:11 40.476090 -123.800837 251 6739ft 137kts
05-Aug-12 07:12 40.464739 -123.846039 251 5857ft 132kts
05-Aug-12 07:13 40.465172 -123.889216 301 4967ft 127kts
05-Aug-12 07:14 40.480631 -123.928078 296 4253ft 125kts
05-Aug-12 07:15 40.495549 -123.967909 296 3572ft 124kts
05-Aug-12 07:16 40.510760 -124.008629 296 2821ft 128kts
05-Aug-12 07:17 40.523483 -124.048861 292 1928ft 114kts
05-Aug-12 07:18 40.535204 -124.085811 293 1221ft 108kts
05-Aug-12 07:19 40.546066 -124.119778 294 533ft 94kts
05-Aug-12 07:20 40.554672 -124.131845 30 394ft 10kts
05-Aug-12 07:21 40.555235 -124.131433 295 394ft 0kts

Navigation Log

Ident Type
Flight plan parsing failed, navigation log unavailable